3ème Championnat Régional

Compétition Régionale

LAVAL (FRA)

Le Vendredi 02 Juillet 2021

Bassin de 50m

100 Nage Libre Messieurs

Finale A

Nom Année Temps Pts Club Pays
1 SOULAS Alexis 2000 0:54:31 1111 NANTES NATATION FRA
2 GUERIN Jules 2005 0:54:93 1091 CN LE MANS FRA
3 MARTINS Mattéo 2002 0:54:98 1089 ANGERS NATATION FRA
4 MAILLY Noé 2002 0:55:07 1086 ANGERS NATATION FRA
5 DESPRETZ Timothée 2004 0:55:18 1082 NANTES NATATION FRA
6 GIGAN Mathéo 2005 0:55:22 1081 ANGERS NATATION FRA
7 HERBULOT Rémi 2005 0:55:45 1074 ANGERS NATATION FRA
8 JODIN Matéo 2001 0:57:50 1007 NANTES NATATION FRA

Finale B

Nom Année Temps Pts Club Pays
1 BILLAUD Nicolas 2004 0:56:32 1045 ANGERS NATATION FRA
2 CLAUDE Enzo 2003 0:56:42 1042 AS AVRILLÉ NATATION FRA
3 LANNIC Solen 2004 0:56:60 1036 STADE LAVAL FRA
4 BRUNEL Sam 2005 0:57:01 1023 LA ROCHE-SUR-YON NATATION FRA
5 HORTOPAN Matei-Florian 2006 0:57:18 1018 ALLONNES JEUNESSE SPORTIVE FRA
6 BOUREAU Kilian 2003 0:57:31 1013 ASPTT NANTES FRA
7 LAMISSE Raphaël 2005 0:57:90 995 ANGERS NATATION FRA
8 TARDY Lenny 2005 0:58:51 976 LA ROCHE-SUR-YON NATATION FRA

Finale C

Nom Année Temps Pts Club Pays
1 LLEDOS Sacha 2006 0:57:49 1008 NANTES NATATION FRA
2 DREZET Sébastien 2005 0:57:53 1006 ST-NAZAIRE ATLANTIQUE NATATION FRA
3 DERSOIR Lucas 2005 0:57:92 994 NANTES NATATION FRA
4 DU REAU Elliott 2005 0:58:38 980 ANGERS NATATION FRA
5 POTTIER Estin 2007 0:58:47 977 CN LE MANS FRA
6 POULAIN Basile 2006 0:58:69 970 CHALLANS NATATION FRA
7 GUERIN Gabriel 2007 0:59:37 949 ALLONNES JEUNESSE SPORTIVE FRA
8 CLOUET Constant 2006 1:01:15 895 ANGERS NATATION FRA

Séries

Nom Année Temps Pts Club Pays
1 GUERIN Jules 2005 0:54:81 1095 CN LE MANS FRA
2 DESPRETZ Timothée 2004 0:55:00 1088 NANTES NATATION FRA
3 GIGAN Mathéo 2005 0:55:00 1088 ANGERS NATATION FRA
4 SOULAS Alexis 2000 0:55:06 1086 NANTES NATATION FRA
5 HERBULOT Rémi 2005 0:55:39 1075 ANGERS NATATION FRA
6 MARTINS Mattéo 2002 0:55:71 1065 ANGERS NATATION FRA
7 MAILLY Noé 2002 0:55:99 1056 ANGERS NATATION FRA
8 JODIN Matéo 2001 0:56:20 1049 NANTES NATATION FRA
9 BILLAUD Nicolas 2004 0:56:22 1048 ANGERS NATATION FRA
10 BOUREAU Kilian 2003 0:56:71 1033 ASPTT NANTES FRA
11 LANNIC Solen 2004 0:56:74 1032 STADE LAVAL FRA
12 CLAUDE Enzo 2003 0:56:99 1024 AS AVRILLÉ NATATION FRA
13 TARDY Lenny 2005 0:57:12 1020 LA ROCHE-SUR-YON NATATION FRA
14 HORTOPAN Matei-Florian 2006 0:57:12 1020 ALLONNES JEUNESSE SPORTIVE FRA
15 BRUNEL Sam 2005 0:57:24 1016 LA ROCHE-SUR-YON NATATION FRA
16 LAMISSE Raphaël 2005 0:57:24 1016 ANGERS NATATION FRA
17 MARRET Auguste 2004 0:57:33 1013 LA ROCHE-SUR-YON NATATION FRA
18 LLEDOS Sacha 2006 0:57:86 996 NANTES NATATION FRA
19 DERSOIR Lucas 2005 0:57:97 993 NANTES NATATION FRA
20 DREZET Sébastien 2005 0:58:07 989 ST-NAZAIRE ATLANTIQUE NATATION FRA
21 RIPOCHE Briag 2004 0:58:16 987 ASPTT NANTES FRA
22 POULAIN Basile 2006 0:58:17 986 CHALLANS NATATION FRA
23 GUERIN Gabriel 2007 0:58:36 980 ALLONNES JEUNESSE SPORTIVE FRA
24 CHAUVET Basile 2004 0:58:48 977 LA ROCHE-SUR-YON NATATION FRA
25 DU REAU Elliott 2005 0:58:56 974 ANGERS NATATION FRA
26 POTTIER Estin 2007 0:59:16 955 CN LE MANS FRA
27 CLOUET Constant 2006 0:59:22 954 ANGERS NATATION FRA
28 DELAIN Hadrien 2004 0:59:29 951 ANGERS NATATION FRA
29 VINES Pablo 2004 0:59:43 947 ST-SÉBASTIEN NATATION FRA
30 MAILLARD Kevin 1999 0:59:43 947 CA EVRON FRA
31 HERBRETEAU Dorian 2004 0:59:52 944 LA ROCHE-SUR-YON NATATION FRA
32 BOHN Matthieu 2004 0:59:65 940 NANTES NATATION FRA
33 GACHET Theo 2005 0:59:69 939 ANCENIS COURSE NATATION FRA
34 BARREAU Victor 2005 0:59:98 930 NANTES NATATION FRA
35 FAYS Gabin 2006 1:00:11 926 CN LE MANS FRA
36 FOUCHER Leo 2005 1:00:28 921 ANGERS NATATION FRA
37 THARREAU Gaspard 2004 1:00:41 917 ASPTT NANTES FRA
38 DELAUNAY Alexandre 2006 1:00:45 916 CLUB AQUATIQUE CHOLETAIS FRA
39 KOCH Maxime 2005 1:00:48 915 ANGERS NATATION FRA
40 BORDERON Evan 2005 1:00:48 915 CLUB AQUATIQUE CHOLETAIS FRA
41 CHEVET Paul 2007 1:01:07 897 CN LE MANS FRA
42 MARTINEAU-RAGUENEAU Virgile 2006 1:01:17 894 CN LUÇON FRA
43 VANDEWEGHE Clément 2005 1:01:24 892 CHALLANS NATATION FRA
44 TUFFIER Loic 2007 1:01:35 889 CN LE MANS FRA
45 BENCHOHRA Mohamed-Aymen 2005 1:01:65 880 NANTES NATATION FRA
46 GODEL Lorenzo 2006 1:02:07 868 STADE LAVAL FRA
47 LHEGU Clément 2006 1:02:11 866 LES GOÉLANDS SABLÉ-SUR-SARTHE FRA
48 ROLAND Mathis 2005 1:02:22 863 STADE LAVAL FRA
49 DELOGE Maxime 2004 1:02:35 859 ES SEGRÉ FRA
50 DUFRESNE Simon 2006 1:02:64 851 ANGERS NATATION FRA
51 ARRAUDEAU Martin 2008 1:02:65 851 ANCENIS COURSE NATATION FRA
52 ROLLO Clement 2004 1:02:86 845 ANGERS NATATION FRA
53 HBA-GUILBAUD Ilyes 2005 1:02:91 843 CLUB AQUATIQUE CHOLETAIS FRA
54 LE DOEUFF Manuarii 2004 1:03:56 824 ES SEGRÉ FRA
55 DAGUET Thomas 2006 1:04:13 808 ANGERS NATATION FRA
56 RAIMBAULT Luis 2005 1:04:26 804 CHATEAU GONTIER NATATION FRA
57 SORIN Alexandre 2006 1:04:34 802 AS AVRILLÉ NATATION FRA
58 DE FARIA Tom 2006 1:04:51 797 LA ROCHE-SUR-YON NATATION FRA
59 SMOLAK Esteban 2006 1:04:53 797 CLUB AQUATIQUE CHOLETAIS FRA
60 NARKAOUSKY Téo 2006 1:05:03 783 ST-NAZAIRE ATLANTIQUE NATATION FRA
61 SEYEUX Lucas 2006 1:05:45 771 ES SEGRÉ FRA
62 DELAMARRE Enzo 2003 1:05:98 756 ST-SÉBASTIEN NATATION FRA
63 GRAJA Wael 2006 1:07:86 706 CN LE MANS FRA
64 ZEBICHE Adel 2006 1:08:15 698 LA NAT'SUZERAINE FRA
SNAN Natation  - Water Polo